Time;durP1;ratioP1;P1;durP2;ratioP2;P2;SDS_P1;SDS_P2;PMS_P1;PMS_P2;Temp;Humidity;BMP_temperature;BMP_pressure;BME280_temperature;BME280_humidity;BME280_pressure;Samples;Min_cycle;Max_cycle;Signal;HPM_P1;HPM_P2
2022/05/21 00:02:43;;;;;;;1.30;0.93;;;22.50;46.50;;;20.21;49.20;100634.25;12236994;19;20021;-78
2022/05/21 00:06:44;;;;;;;0.60;0.60;;;22.20;46.80;;;20.06;49.35;100639.25;12236685;19;20006;-78
2022/05/21 00:10:46;;;;;;;0.80;0.52;;;22.10;46.70;;;19.94;49.42;100652.84;12236485;19;20014;-78
2022/05/21 00:14:47;;;;;;;3.67;0.80;;;22.00;46.50;;;19.62;49.31;100624.91;12234997;19;20031;-78
2022/05/21 00:18:49;;;;;;;1.40;0.80;;;21.80;46.50;;;19.49;49.16;100627.88;12233524;19;20038;-77
2022/05/21 00:22:51;;;;;;;0.73;0.73;;;21.60;46.50;;;19.57;49.35;100674.84;12236519;19;20376;-78
2022/05/21 00:26:53;;;;;;;2.05;0.50;;;21.40;46.30;;;19.53;49.19;100679.59;12236293;19;20023;-77
2022/05/21 00:30:57;;;;;;;0.50;0.50;;;21.40;46.50;;;19.33;49.11;100668.22;12235999;19;20003;-77
2022/05/21 00:34:58;;;;;;;0.50;0.50;;;21.30;46.60;;;19.10;49.00;100629.81;12235202;19;20495;-77
2022/05/21 00:39:00;;;;;;;0.55;0.55;;;21.20;46.70;;;19.37;49.20;100690.78;12239382;19;20417;-77
2022/05/21 00:43:03;;;;;;;0.65;0.65;;;21.20;46.50;;;19.25;49.31;100683.97;12232447;19;20460;-77
2022/05/21 00:47:05;;;;;;;0.70;0.50;;;21.20;46.60;;;19.17;49.39;100694.44;12239356;19;20025;-78
2022/05/21 00:51:14;;;;;;;1.27;0.60;;;21.10;46.50;;;19.16;49.13;100704.19;12232237;19;20078;-78
2022/05/21 00:55:29;;;;;;;2.70;0.90;;;21.10;46.50;;;19.02;49.35;100704.63;12235454;19;20025;-77
2022/05/21 00:59:51;;;;;;;2.33;0.60;;;21.00;46.40;;;19.03;49.09;100732.75;12238672;19;20022;-77
2022/05/21 01:03:53;;;;;;;0.50;0.50;;;21.00;46.00;;;19.01;49.08;100740.84;12234322;19;20361;-78
2022/05/21 01:08:01;;;;;;;0.75;0.45;;;20.90;46.00;;;18.98;49.27;100738.50;12235414;19;20504;-77
2022/05/21 01:12:08;;;;;;;1.58;0.50;;;20.70;45.80;;;18.84;49.19;100754.75;12235649;19;20086;-77
2022/05/21 01:16:10;;;;;;;1.08;0.63;;;20.80;45.80;;;18.70;48.95;100739.25;12237500;19;20042;-77
2022/05/21 01:20:18;;;;;;;0.40;0.40;;;20.70;45.70;;;18.63;49.08;100746.06;12238850;19;20443;-78
2022/05/21 01:24:19;;;;;;;0.57;0.43;;;20.70;45.80;;;18.76;48.94;100792.47;12232765;19;20131;-78
2022/05/21 01:28:26;;;;;;;0.68;0.60;;;20.70;45.80;;;18.67;49.03;100790.63;12236205;19;20048;-78
2022/05/21 01:32:28;;;;;;;3.88;1.13;;;20.50;45.80;;;18.60;48.93;100805.34;12240377;19;20007;-78
2022/05/21 01:36:30;;;;;;;3.08;0.60;;;20.50;45.70;;;18.63;48.91;100813.00;12244073;19;20007;-78
2022/05/21 01:40:34;;;;;;;0.50;0.50;;;20.40;45.50;;;18.54;48.95;100801.44;12251446;19;20025;-77
2022/05/21 01:44:38;;;;;;;2.10;0.57;;;20.50;45.40;;;18.62;48.99;100829.03;12243592;19;20023;-77
2022/05/21 01:48:40;;;;;;;1.17;0.60;;;20.40;45.30;;;18.39;48.70;100810.72;12250789;19;20029;-77
2022/05/21 01:52:42;;;;;;;0.47;0.47;;;20.40;45.40;;;18.51;48.90;100832.63;12242552;19;20293;-77
2022/05/21 01:56:44;;;;;;;1.13;0.60;;;20.40;45.30;;;18.57;49.19;100835.56;12247561;19;20531;-77
2022/05/21 02:00:46;;;;;;;0.60;0.52;;;20.40;45.10;;;18.43;48.78;100821.88;12248688;19;20018;-77
2022/05/21 02:04:47;;;;;;;1.33;0.60;;;20.30;45.20;;;18.47;48.83;100826.78;12242557;19;20010;-78
2022/05/21 02:08:49;;;;;;;0.70;0.70;;;20.30;45.20;;;18.48;48.89;100848.75;12247203;19;20122;-77
2022/05/21 02:12:51;;;;;;;0.82;0.50;;;20.30;45.10;;;18.09;48.54;100801.84;12247113;19;20031;-78
2022/05/21 02:16:53;;;;;;;0.32;0.32;;;20.10;45.10;;;18.41;48.82;100851.06;12249908;19;20022;-77
2022/05/21 02:20:55;;;;;;;0.52;0.52;;;20.20;45.10;;;18.16;48.54;100830.38;12249081;19;20021;-78
2022/05/21 02:24:57;;;;;;;0.50;0.50;;;20.20;45.20;;;18.32;48.73;100862.47;12247028;19;20429;-77
2022/05/21 02:28:58;;;;;;;0.50;0.50;;;20.30;45.30;;;18.09;48.77;100835.34;12242630;19;20329;-77
2022/05/21 02:33:00;;;;;;;1.85;0.57;;;20.20;45.20;;;18.20;48.93;100869.66;12244647;19;20417;-77
2022/05/21 02:41:23;;;;;;;0.68;0.50;;;20.20;45.80;;;18.19;48.85;100889.09;12244820;19;20370;-77
2022/05/21 02:45:27;;;;;;;0.82;0.57;;;20.20;45.90;;;18.20;49.11;100887.28;12243859;19;20382;-78
2022/05/21 02:49:29;;;;;;;0.60;0.60;;;20.10;46.10;;;18.28;49.28;100920.06;12244753;19;20365;-77
2022/05/21 02:53:31;;;;;;;0.80;0.80;;;20.10;46.10;;;18.14;49.12;100913.25;12243968;19;20042;-77
2022/05/21 02:57:33;;;;;;;0.47;0.47;;;19.90;45.80;;;18.14;49.24;100910.63;12246962;19;20022;-77
2022/05/21 03:01:35;;;;;;;1.17;0.90;;;20.10;45.80;;;18.07;49.40;100920.06;12246450;19;20033;-77
2022/05/21 03:05:37;;;;;;;1.23;0.75;;;20.00;45.70;;;17.85;49.28;100901.69;12245558;19;20018;-77
2022/05/21 03:14:00;;;;;;;0.50;0.50;;;19.90;45.40;;;17.82;49.15;100926.53;12240876;19;20029;-77
2022/05/21 03:18:04;;;;;;;0.80;0.80;;;19.80;45.30;;;17.74;49.26;100920.16;12244610;19;20509;-77
2022/05/21 03:22:06;;;;;;;2.70;0.80;;;19.70;45.30;;;17.77;48.94;100948.97;12242941;19;20749;-77
2022/05/21 03:26:08;;;;;;;0.70;0.70;;;19.70;45.30;;;17.69;49.34;100942.53;12243752;19;20017;-77
2022/05/21 03:30:14;;;;;;;1.13;0.70;;;19.70;45.10;;;17.62;49.21;100959.81;12239084;19;20014;-77
2022/05/21 03:34:17;;;;;;;1.85;0.73;;;19.60;45.10;;;17.56;49.01;100970.06;12238416;19;20014;-77
2022/05/21 03:38:19;;;;;;;2.47;0.80;;;19.60;45.00;;;17.52;48.89;100980.00;12243151;19;20031;-77
2022/05/21 03:42:20;;;;;;;0.80;0.80;;;19.50;44.90;;;17.51;49.08;101004.75;12244345;19;20022;-77
2022/05/21 03:46:22;;;;;;;0.68;0.60;;;19.40;44.80;;;17.39;48.90;100981.94;12239465;19;20082;-76
2022/05/21 03:50:31;;;;;;;0.80;0.70;;;19.50;45.00;;;16.90;49.12;100907.50;12241633;19;20006;-77
2022/05/21 03:54:34;;;;;;;0.60;0.60;;;19.40;44.80;;;17.31;49.04;100990.50;12233588;19;20015;-77
2022/05/21 03:58:35;;;;;;;1.00;0.73;;;19.40;44.70;;;17.27;48.90;101001.41;12242360;19;20511;-77
2022/05/21 04:02:37;;;;;;;1.33;0.70;;;19.30;44.90;;;17.36;48.97;101033.22;12241920;19;20014;-76
2022/05/21 04:06:39;;;;;;;1.08;0.60;;;19.30;44.70;;;17.41;48.82;101052.16;12237526;19;20508;-76
2022/05/21 04:10:40;;;;;;;3.05;1.10;;;19.30;44.60;;;17.35;48.88;101059.72;12242715;19;20010;-77
2022/05/21 04:14:42;;;;;;;0.75;0.65;;;19.30;44.60;;;17.32;48.83;101063.44;12239553;19;20022;-76
2022/05/21 04:18:43;;;;;;;1.05;0.60;;;19.10;44.40;;;17.25;48.98;101071.03;12243176;19;20013;-77
2022/05/21 04:22:45;;;;;;;0.57;0.50;;;19.20;44.30;;;17.06;48.97;101062.00;12238693;19;20014;-76
2022/05/21 04:26:47;;;;;;;2.17;0.50;;;19.10;44.30;;;17.03;48.88;101077.09;12241323;19;20010;-77
2022/05/21 04:30:49;;;;;;;0.52;0.52;;;19.10;44.30;;;16.97;48.84;101074.94;12235728;19;20046;-77
2022/05/21 04:34:50;;;;;;;0.65;0.65;;;18.90;44.30;;;16.93;49.14;101080.56;12238743;19;20478;-77
2022/05/21 04:38:53;;;;;;;0.80;0.60;;;18.90;44.30;;;16.91;48.77;101093.88;12239672;19;20410;-76
2022/05/21 04:42:55;;;;;;;0.77;0.57;;;18.80;44.20;;;16.79;48.95;101090.34;12231674;19;20383;-76
2022/05/21 04:46:58;;;;;;;0.93;0.70;;;18.90;44.30;;;16.90;48.86;101130.91;12235588;19;20011;-77
2022/05/21 04:51:02;;;;;;;0.50;0.50;;;18.90;44.20;;;16.87;49.00;101136.44;12236823;19;20027;-77
2022/05/21 04:55:07;;;;;;;2.15;0.68;;;18.80;44.10;;;16.77;48.94;101126.56;12234026;19;20018;-79
2022/05/21 04:59:10;;;;;;;1.08;0.70;;;18.80;44.00;;;16.66;48.50;101123.00;12233541;19;20022;-80
2022/05/21 05:03:14;;;;;;;0.60;0.57;;;18.80;43.90;;;16.85;48.78;101162.06;12235884;19;20013;-78
2022/05/21 05:07:19;;;;;;;1.98;0.73;;;18.70;43.90;;;16.79;48.73;101156.28;12247044;19;20006;-79
2022/05/21 05:11:20;;;;;;;0.55;0.55;;;18.60;43.90;;;16.74;48.52;101144.38;12248954;19;20007;-78
2022/05/21 05:15:22;;;;;;;1.02;0.82;;;18.70;43.90;;;16.89;48.46;101151.19;12242914;19;20018;-78
2022/05/21 05:19:23;;;;;;;1.92;0.60;;;18.80;43.70;;;16.88;48.58;101181.16;12251389;19;20460;-78
2022/05/21 05:23:25;;;;;;;3.55;1.23;;;18.80;43.90;;;16.73;48.59;101154.09;12247296;19;20014;-78
2022/05/21 05:27:27;;;;;;;1.05;0.57;;;18.70;44.10;;;16.95;48.66;101189.47;12250952;19;20013;-79
2022/05/21 05:31:28;;;;;;;1.48;0.68;;;18.80;44.10;;;16.92;48.36;101184.41;12245634;19;20026;-79
2022/05/21 05:35:31;;;;;;;1.63;0.50;;;18.80;44.10;;;17.01;48.39;101191.63;12251955;19;20011;-77
2022/05/21 05:39:32;;;;;;;0.70;0.52;;;18.90;44.00;;;17.02;48.46;101201.25;12248956;19;20027;-78
2022/05/21 05:43:34;;;;;;;3.45;1.17;;;18.90;43.90;;;16.96;48.28;101196.44;12244427;19;20043;-81
2022/05/21 05:47:36;;;;;;;0.70;0.60;;;18.80;43.70;;;17.02;48.44;101206.53;12244977;19;20034;-85
2022/05/21 05:51:38;;;;;;;1.05;0.68;;;18.90;43.70;;;16.87;48.53;101182.09;12246490;19;20010;-84
2022/05/21 05:55:41;;;;;;;1.10;0.60;;;18.90;43.70;;;17.00;48.48;101190.78;12247210;19;20389;-85
2022/05/21 05:59:50;;;;;;;0.85;0.55;;;19.00;43.70;;;17.06;48.25;101197.41;12246528;19;20058;-85
2022/05/21 06:03:53;;;;;;;2.75;0.80;;;19.00;43.40;;;17.03;48.02;101184.44;12246358;19;20022;-85
2022/05/21 06:07:58;;;;;;;1.13;0.57;;;18.90;43.30;;;17.23;48.13;101220.75;12244636;19;20508;-85
2022/05/21 06:12:00;;;;;;;4.05;0.70;;;19.00;43.20;;;16.87;48.21;101154.88;12249136;19;20043;-88
2022/05/21 06:16:04;;;;;;;0.65;0.52;;;19.10;43.00;;;17.13;48.05;101219.75;12245504;19;20010;-84
2022/05/21 06:20:09;;;;;;;0.68;0.68;;;19.10;43.00;;;17.10;47.91;101217.34;12249537;19;20090;-86
2022/05/21 06:24:10;;;;;;;1.58;0.77;;;19.10;42.90;;;16.97;47.93;101203.38;12241392;19;20025;-84
2022/05/21 06:28:13;;;;;;;1.20;0.63;;;19.10;42.90;;;16.99;47.69;101198.84;12248587;19;20415;-87
2022/05/21 06:32:15;;;;;;;1.13;0.80;;;19.20;43.00;;;17.30;47.93;101228.19;12240406;19;20417;-85
2022/05/21 06:36:16;;;;;;;1.00;0.70;;;19.20;43.20;;;17.39;47.74;101223.06;12247627;19;20010;-84
2022/05/21 06:40:19;;;;;;;1.75;0.60;;;19.20;42.90;;;17.52;47.67;101238.78;12245536;19;20030;-85
2022/05/21 06:44:20;;;;;;;0.98;0.70;;;19.20;42.80;;;17.60;47.68;101248.78;12246268;19;20010;-85
2022/05/21 06:48:22;;;;;;;0.60;0.60;;;19.40;42.80;;;17.67;47.49;101231.50;12245449;19;20031;-85
2022/05/21 06:52:30;;;;;;;1.20;0.82;;;19.50;43.00;;;17.76;47.61;101227.31;12244948;19;20046;-85
2022/05/21 06:56:32;;;;;;;2.20;0.82;;;19.50;42.90;;;17.65;47.33;101210.50;12244947;19;20021;-87
2022/05/21 07:00:33;;;;;;;0.60;0.60;;;19.30;42.60;;;17.82;47.49;101250.63;12246542;19;20010;-86
2022/05/21 07:08:56;;;;;;;0.73;0.70;;;19.70;42.40;;;17.66;47.37;101249.16;12218888;19;20021;-86
2022/05/21 07:12:58;;;;;;;0.95;0.70;;;19.60;42.20;;;17.59;47.57;101255.88;12239869;19;20071;-85
2022/05/21 07:17:00;;;;;;;1.45;0.63;;;19.60;42.30;;;17.53;47.13;101252.88;12239992;19;20039;-84
2022/05/21 07:21:02;;;;;;;0.68;0.60;;;19.60;42.60;;;17.41;47.17;101231.69;12243796;19;20078;-85
2022/05/21 07:25:04;;;;;;;1.40;0.68;;;19.60;42.10;;;17.67;47.30;101261.41;12235885;19;20523;-86
2022/05/21 07:29:07;;;;;;;1.20;0.80;;;19.60;42.30;;;17.77;47.46;101260.69;12240947;19;20084;-85
2022/05/21 07:33:14;;;;;;;0.70;0.70;;;19.30;42.20;;;17.81;47.16;101278.88;12239432;19;20055;-84
2022/05/21 07:37:15;;;;;;;2.45;0.63;;;19.60;42.30;;;17.92;47.17;101270.13;12238684;19;20018;-84
2022/05/21 07:41:18;;;;;;;1.08;0.82;;;19.50;42.00;;;18.01;46.94;101253.56;12239392;19;20018;-84
2022/05/21 07:45:20;;;;;;;0.63;0.57;;;19.80;42.40;;;18.11;46.81;101243.94;12236232;19;20024;-85
2022/05/21 07:49:23;;;;;;;3.65;0.57;;;19.90;42.20;;;18.27;46.82;101254.13;12238811;19;20021;-85
2022/05/21 07:53:30;;;;;;;1.00;0.50;;;19.80;42.30;;;18.19;46.61;101219.53;12235147;19;20349;-85
2022/05/21 07:57:32;;;;;;;0.73;0.57;;;20.10;41.90;;;18.40;46.82;101254.00;12238051;19;20006;-87
2022/05/21 08:01:33;;;;;;;2.03;0.68;;;20.20;42.00;;;18.63;46.53;101256.59;12235929;19;20010;-85
2022/05/21 08:05:38;;;;;;;1.30;0.60;;;20.10;41.80;;;18.63;46.64;101235.44;12239141;19;20015;-85
2022/05/21 08:09:39;;;;;;;2.43;0.63;;;20.30;42.20;;;18.91;46.78;101245.50;12241527;19;20105;-84
2022/05/21 08:13:42;;;;;;;0.70;0.60;;;20.50;42.20;;;19.17;46.70;101245.13;12235212;19;20428;-85
2022/05/21 08:17:44;;;;;;;0.80;0.52;;;20.70;42.30;;;19.29;46.40;101227.41;12239417;19;20409;-84
2022/05/21 08:21:46;;;;;;;0.55;0.55;;;20.80;42.20;;;19.43;46.44;101241.13;12237144;19;20383;-82
2022/05/21 08:30:09;;;;;;;2.40;0.55;;;21.20;42.20;;;19.81;46.38;101226.47;12237054;19;20018;-85
2022/05/21 08:34:10;;;;;;;0.65;0.50;;;21.40;41.90;;;19.82;46.12;101220.22;12237307;19;20482;-84
2022/05/21 08:38:13;;;;;;;2.80;0.63;;;21.60;42.20;;;20.03;45.93;101212.19;12232097;19;20642;-84
2022/05/21 08:42:25;;;;;;;1.15;0.60;;;21.40;41.30;;;20.25;45.98;101226.19;12238435;19;20460;-85
2022/05/21 08:47:05;;;;;;;1.75;0.70;;;21.80;41.80;;;20.50;45.62;101236.34;12236192;19;20015;-85
2022/05/21 08:51:19;;;;;;;1.20;0.68;;;22.00;41.70;;;20.59;45.35;101221.44;12232569;19;20022;-86
2022/05/21 08:55:29;;;;;;;2.45;0.68;;;22.20;41.20;;;20.09;45.66;101136.56;12238213;19;20014;-84
2022/05/21 08:59:43;;;;;;;2.05;0.63;;;22.30;40.90;;;20.70;45.20;101216.00;12234796;19;20014;-84
2022/05/21 09:03:45;;;;;;;0.95;0.70;;;22.30;40.90;;;20.65;45.09;101199.63;12236752;19;20029;-83
2022/05/21 09:08:21;;;;;;;1.88;0.60;;;22.40;40.60;;;20.93;45.03;101218.41;12237101;19;20484;-83
2022/05/21 09:12:53;;;;;;;1.15;0.60;;;22.50;40.40;;;20.93;44.91;101224.53;12222017;19;20018;-86
2022/05/21 09:16:55;;;;;;;1.63;0.90;;;22.60;40.40;;;20.66;44.81;101233.19;12224208;19;20026;-81
2022/05/21 09:21:16;;;;;;;1.67;0.80;;;22.70;40.00;;;20.49;44.55;101247.91;12224536;19;20031;-82
2022/05/21 09:25:24;;;;;;;2.65;0.75;;;22.60;39.80;;;20.25;45.25;101263.34;12221637;19;20047;-81
2022/05/21 09:29:31;;;;;;;2.58;0.75;;;22.70;40.20;;;20.01;45.44;101258.34;12216047;19;20052;-83
2022/05/21 09:33:43;;;;;;;0.75;0.70;;;22.20;40.40;;;19.80;45.63;101245.16;12218860;19;20018;-83
2022/05/21 09:37:46;;;;;;;1.73;1.17;;;22.20;40.50;;;19.48;45.63;101230.16;12179967;19;20014;-82
2022/05/21 09:41:47;;;;;;;2.05;0.82;;;21.80;40.50;;;19.44;45.47;101261.38;12222076;19;20035;-83
2022/05/21 09:45:49;;;;;;;1.25;0.60;;;21.70;40.80;;;19.28;45.58;101237.16;12219401;19;20101;-82
2022/05/21 09:50:11;;;;;;;1.58;0.90;;;21.50;41.10;;;19.41;46.10;101269.56;12222574;19;20018;-82
2022/05/21 09:54:27;;;;;;;1.95;0.77;;;21.40;41.10;;;19.26;46.00;101260.28;12229796;19;20026;-83
2022/05/21 09:58:35;;;;;;;1.67;0.98;;;21.30;41.30;;;19.23;45.99;101255.22;12232778;19;20014;-84
2022/05/21 10:02:51;;;;;;;1.80;0.68;;;21.20;41.80;;;19.37;46.28;101273.44;12232070;19;20505;-83
2022/05/21 10:12:08;;;;;;;1.10;0.98;;;21.20;42.20;;;19.69;46.17;101271.75;12231056;19;20506;-84
2022/05/21 10:16:45;;;;;;;1.45;1.10;;;21.30;42.20;;;19.71;45.68;101267.97;12231867;19;20014;-83
2022/05/21 10:20:54;;;;;;;3.47;1.30;;;21.40;41.80;;;19.59;46.13;101264.53;12231144;19;20011;-82
2022/05/21 10:25:14;;;;;;;1.90;1.67;;;21.40;41.70;;;19.55;45.79;101273.72;12228612;19;20025;-84
2022/05/21 10:29:50;;;;;;;3.88;1.83;;;21.40;41.40;;;19.29;46.04;101238.81;12234081;19;20018;-82
2022/05/21 10:34:04;;;;;;;2.03;1.70;;;21.40;41.40;;;19.52;45.86;101263.34;12227124;19;20015;-84
2022/05/21 10:39:06;;;;;;;3.13;1.75;;;21.30;41.70;;;19.64;45.91;101237.66;12231472;19;21074;-83
2022/05/21 10:43:21;;;;;;;3.63;1.50;;;21.40;41.80;;;19.81;45.62;101241.53;12225716;19;20483;-83
2022/05/21 10:47:39;;;;;;;2.95;1.60;;;21.50;42.00;;;20.14;45.81;101258.13;12226124;19;20015;-82
2022/05/21 10:52:04;;;;;;;4.22;2.47;;;21.60;41.70;;;20.36;45.25;101257.09;12227929;19;20022;-82
2022/05/21 10:56:44;;;;;;;1.58;1.48;;;21.80;41.50;;;20.42;45.06;101241.47;12229331;19;20022;-82
2022/05/21 11:01:05;;;;;;;2.28;1.40;;;22.00;41.20;;;20.52;45.26;101236.19;12228289;19;20046;-81
2022/05/21 11:05:37;;;;;;;2.22;1.40;;;22.10;41.30;;;20.72;45.30;101237.94;12224351;19;20074;-81
2022/05/21 11:09:45;;;;;;;2.33;1.73;;;22.30;41.40;;;20.83;44.87;101226.34;12230521;19;20092;-82
2022/05/21 11:14:08;;;;;;;3.25;1.85;;;22.40;40.90;;;20.83;44.72;101213.06;12223368;19;20014;-83
2022/05/21 11:18:24;;;;;;;3.17;1.52;;;22.50;40.50;;;20.89;44.81;101216.97;12225787;19;20023;-83
2022/05/21 11:22:39;;;;;;;;;;;22.60;40.80;;;20.94;44.96;101220.06;12225620;19;20037;-84
2022/05/21 11:27:20;;;;;;;1.40;1.30;;;22.70;40.70;;;20.78;44.48;101213.47;12224067;19;20267;-83
2022/05/21 11:37:21;;;;;;;2.85;1.52;;;22.60;40.00;;;20.75;44.60;101192.53;12226747;19;20750;-85
2022/05/21 11:45:25;;;;;;;2.15;1.20;;;22.70;40.30;;;21.07;44.49;101199.38;12224360;19;20026;-83
2022/05/21 11:49:54;;;;;;;2.00;1.50;;;22.80;40.10;;;20.97;44.26;101195.88;12225398;19;20022;-82
2022/05/21 11:53:56;;;;;;;1.42;1.33;;;22.80;39.80;;;20.92;44.25;101198.94;12221890;19;20365;-84
2022/05/21 11:58:06;;;;;;;3.75;1.80;;;22.80;39.70;;;20.89;43.91;101193.91;12224491;19;20006;-82
2022/05/21 12:02:23;;;;;;;4.07;2.10;;;22.70;39.60;;;20.98;43.96;101189.56;12224394;19;20479;-83
2022/05/21 12:06:38;;;;;;;2.25;1.63;;;22.80;39.60;;;20.79;43.91;101134.66;12225604;19;20713;-83
2022/05/21 12:11:30;;;;;;;3.33;1.80;;;22.80;39.80;;;21.32;43.87;101213.03;12226409;19;20019;-83
2022/05/21 12:15:47;;;;;;;2.53;1.48;;;22.90;39.50;;;21.24;43.58;101178.38;12219337;19;20034;-84
2022/05/21 12:19:52;;;;;;;2.28;1.33;;;23.00;39.40;;;21.34;43.88;101201.28;12224010;19;20014;-83
2022/05/21 12:23:54;;;;;;;7.38;1.95;;;23.10;39.30;;;21.23;43.47;101208.59;12221348;19;20463;-83
2022/05/21 12:27:59;;;;;;;2.05;1.30;;;22.90;39.10;;;20.89;43.63;101187.78;12222782;19;20015;-83
2022/05/21 12:32:01;;;;;;;1.70;1.38;;;23.00;39.00;;;21.00;43.53;101225.63;12222222;19;20019;-84
2022/05/21 12:36:35;;;;;;;1.52;1.42;;;22.90;39.10;;;20.98;43.52;101224.97;12221351;19;20035;-84
2022/05/21 12:41:05;;;;;;;2.10;1.27;;;22.80;39.00;;;20.83;43.84;101230.81;12223859;19;20042;-85
2022/05/21 12:45:08;;;;;;;3.13;1.17;;;22.80;39.10;;;20.48;43.98;101203.78;12219943;19;20515;-82
2022/05/21 12:49:11;;;;;;;3.17;1.27;;;22.50;39.50;;;20.17;43.99;101162.38;12223647;19;20010;-83
2022/05/21 12:53:27;;;;;;;3.63;1.30;;;22.50;39.80;;;20.39;44.25;101235.59;12221992;19;20022;-83
2022/05/21 12:57:31;;;;;;;1.60;1.42;;;22.40;39.80;;;20.14;44.50;101210.41;12222780;19;20026;-84
2022/05/21 13:01:38;;;;;;;1.83;1.30;;;22.30;40.00;;;20.24;44.25;101230.66;12221315;19;20055;-84
2022/05/21 13:05:57;;;;;;;2.22;1.67;;;22.00;40.10;;;20.22;44.29;101229.97;12222179;19;20018;-86
2022/05/21 13:10:22;;;;;;;1.40;1.30;;;22.10;40.00;;;20.09;44.41;101190.44;12223216;19;20495;-88
2022/05/21 13:14:36;;;;;;;4.22;1.50;;;22.10;40.00;;;20.26;44.25;101204.84;12219608;19;20039;-86
2022/05/21 13:19:28;;;;;;;1.85;1.50;;;22.10;40.20;;;20.02;44.07;101132.78;12219333;19;20158;-87
2022/05/21 13:24:20;;;;;;;1.15;0.98;;;22.10;40.40;;;20.81;44.41;101207.06;12218224;19;20017;-88
2022/05/21 13:28:25;;;;;;;1.83;1.10;;;22.30;40.40;;;20.98;44.31;101197.53;12232294;19;20098;-87
2022/05/21 13:32:32;;;;;;;2.58;1.27;;;22.50;40.40;;;21.08;43.73;101190.41;12231664;19;20082;-88
2022/05/21 13:36:34;;;;;;;3.00;1.23;;;22.70;39.90;;;21.26;43.74;101197.66;12229133;19;20026;-88
2022/05/21 13:40:50;;;;;;;1.83;1.10;;;22.80;39.70;;;21.27;43.55;101178.09;12232257;19;20014;-87
2022/05/21 13:45:00;;;;;;;3.50;1.33;;;23.00;39.40;;;21.36;43.07;101177.22;12227903;19;20117;-87
2022/05/21 13:49:20;;;;;;;2.38;1.15;;;23.00;39.40;;;21.56;43.23;101188.66;12232440;19;20084;-86
2022/05/21 13:53:28;;;;;;;2.63;1.10;;;23.10;39.50;;;21.62;43.12;101210.19;12229974;19;20038;-85
2022/05/21 13:57:34;;;;;;;1.40;0.85;;;23.20;39.30;;;21.70;42.95;101211.28;12232541;19;20361;-86
2022/05/21 14:01:36;;;;;;;1.55;0.73;;;23.20;38.70;;;21.60;42.96;101196.22;12234552;19;20010;-86
2022/05/21 14:06:16;;;;;;;0.93;0.73;;;23.40;38.70;;;21.71;42.71;101189.88;12233099;19;20014;-86
2022/05/21 14:11:03;;;;;;;1.52;0.80;;;23.40;38.60;;;21.78;42.59;101220.19;12235972;19;20364;-87
2022/05/21 14:15:28;;;;;;;1.55;0.70;;;23.50;38.30;;;21.55;42.40;101209.09;12229423;19;20030;-86
2022/05/21 14:19:30;;;;;;;1.67;0.88;;;23.50;38.00;;;21.55;42.71;101203.78;12230508;19;20029;-86
2022/05/21 14:23:35;;;;;;;1.83;0.70;;;23.40;38.40;;;21.75;42.79;101211.69;12229538;19;20014;-86
2022/05/21 14:27:37;;;;;;;1.88;0.60;;;23.30;38.60;;;21.97;42.30;101200.66;12229966;19;20031;-85
2022/05/21 14:31:40;;;;;;;2.50;0.70;;;23.30;38.30;;;22.09;42.35;101188.84;12229401;19;20023;-85
2022/05/21 14:35:43;;;;;;;1.10;0.50;;;23.60;38.50;;;22.30;42.34;101193.97;12227454;19;20022;-84
2022/05/21 14:39:45;;;;;;;1.88;0.52;;;23.80;38.30;;;22.11;42.06;101204.66;12225529;19;20022;-86
2022/05/21 14:43:49;;;;;;;0.70;0.57;;;23.70;38.10;;;22.08;41.89;101226.22;12228317;19;20014;-86
2022/05/21 14:47:53;;;;;;;2.03;0.90;;;23.90;38.30;;;21.83;41.79;101233.91;12229071;19;20407;-86
2022/05/21 14:56:34;;;;;;;1.83;0.63;;;23.70;38.50;;;21.39;42.72;101257.53;12228575;19;20048;-86
2022/05/21 15:00:36;;;;;;;1.45;0.57;;;23.50;38.60;;;20.98;43.38;101250.66;12229428;19;20011;-87
2022/05/21 15:04:39;;;;;;;1.70;0.63;;;23.20;39.50;;;20.39;43.98;101204.63;12224362;19;20018;-89
2022/05/21 15:08:40;;;;;;;1.17;0.98;;;23.00;40.20;;;20.39;44.57;101248.84;12227499;19;20006;-88
2022/05/21 15:12:42;;;;;;;0.50;0.50;;;22.70;41.30;;;19.96;45.25;101191.66;12227306;19;20027;-89
2022/05/21 15:16:44;;;;;;;0.68;0.50;;;22.30;41.90;;;20.20;45.06;101231.94;12224438;19;20017;-83
2022/05/21 15:20:46;;;;;;;0.50;0.50;;;22.30;42.40;;;20.15;45.23;101217.41;12224230;19;20031;-91
2022/05/21 15:24:48;;;;;;;1.00;0.57;;;22.20;42.40;;;20.25;45.34;101240.31;12222143;19;20034;-80
2022/05/21 15:28:50;;;;;;;0.73;0.60;;;22.10;43.10;;;19.89;45.80;101155.06;12222947;19;20025;-79
2022/05/21 15:32:52;;;;;;;0.60;0.60;;;22.20;43.20;;;20.05;45.66;101161.69;12222560;19;20011;-79
2022/05/21 15:36:55;;;;;;;1.00;0.70;;;22.10;43.80;;;20.47;45.94;101214.56;12223152;19;20625;-80
2022/05/21 15:40:57;;;;;;;2.72;1.05;;;22.10;43.30;;;20.34;45.75;101197.06;12226498;19;20447;-80
2022/05/21 15:44:58;;;;;;;5.50;0.80;;;22.10;43.20;;;20.32;45.71;101196.34;12222331;19;20501;-80
2022/05/21 15:49:00;;;;;;;1.10;0.70;;;22.10;42.90;;;20.43;45.79;101207.81;12225001;19;20015;-81
2022/05/21 15:53:02;;;;;;;3.67;0.63;;;22.10;42.30;;;20.37;45.74;101181.84;12225521;19;20090;-80
2022/05/21 15:57:04;;;;;;;2.58;0.60;;;22.20;42.60;;;20.60;45.33;101204.50;12226508;19;20086;-80
2022/05/21 16:01:09;;;;;;;3.60;1.02;;;22.30;42.30;;;20.72;45.32;101210.56;12225255;19;20030;-80
2022/05/21 16:05:11;;;;;;;1.43;0.70;;;22.30;41.70;;;20.55;44.96;101183.72;12224349;19;20111;-80
2022/05/21 16:09:12;;;;;;;2.13;0.90;;;22.40;41.60;;;20.66;44.88;101185.41;12227381;19;20006;-80
2022/05/21 16:13:13;;;;;;;0.70;0.43;;;22.50;41.70;;;20.80;44.89;101204.56;12211625;19;20045;-80
2022/05/21 16:17:17;;;;;;;2.25;0.90;;;22.50;41.40;;;20.84;44.69;101197.97;12222587;19;20484;-79
2022/05/21 16:21:22;;;;;;;1.67;0.77;;;22.60;41.30;;;20.74;44.96;101174.09;12223104;19;20312;-79
2022/05/21 16:25:24;;;;;;;1.50;0.77;;;22.70;41.40;;;21.01;45.19;101199.94;12218294;19;20049;-80
2022/05/21 16:29:28;;;;;;;1.25;0.68;;;22.70;41.20;;;21.04;44.99;101204.97;12222185;19;20022;-80
2022/05/21 16:33:31;;;;;;;0.68;0.68;;;22.70;41.50;;;21.04;44.48;101207.63;12222392;19;20186;-79
2022/05/21 16:37:34;;;;;;;0.80;0.75;;;22.70;41.00;;;21.02;44.74;101190.16;12218251;19;20018;-80
2022/05/21 16:41:35;;;;;;;2.22;1.00;;;22.70;41.00;;;21.03;44.52;101199.78;12219075;19;20018;-79
2022/05/21 16:45:44;;;;;;;2.75;0.82;;;22.80;40.70;;;21.12;44.25;101205.09;12219535;19;20139;-79
2022/05/21 16:49:45;;;;;;;0.55;0.55;;;22.80;40.50;;;20.93;44.32;101183.88;12223435;19;20668;-79
2022/05/21 16:53:47;;;;;;;0.73;0.63;;;22.80;40.40;;;20.64;44.61;101141.41;12220181;19;20026;-78
2022/05/21 16:57:48;;;;;;;2.08;0.93;;;22.80;40.20;;;20.88;44.28;101221.47;12221619;19;20021;-79
2022/05/21 17:01:51;;;;;;;0.73;0.70;;;22.80;40.20;;;20.89;44.13;101209.84;12216541;19;20031;-79
2022/05/21 17:05:52;;;;;;;2.50;0.80;;;22.70;39.40;;;20.89;44.07;101211.66;12218359;19;20028;-79
2022/05/21 17:09:54;;;;;;;0.98;0.60;;;22.70;39.20;;;20.47;43.56;101159.66;12224220;19;20391;-80
2022/05/21 17:13:58;;;;;;;3.65;1.10;;;22.60;38.90;;;20.63;43.68;101180.38;12207311;19;20497;-79
2022/05/21 17:17:59;;;;;;;1.08;0.50;;;22.60;38.90;;;20.83;43.59;101217.53;12216496;19;20022;-78
2022/05/21 17:22:26;;;;;;;2.13;0.70;;;22.60;39.10;;;20.70;43.38;101186.78;12220447;19;20045;-79
2022/05/21 17:26:28;;;;;;;2.00;0.70;;;22.60;38.60;;;20.85;43.03;101211.13;12216509;19;20100;-79
2022/05/21 17:30:30;;;;;;;2.20;0.90;;;22.50;38.60;;;20.75;43.17;101202.31;12213973;19;20036;-79
2022/05/21 17:34:32;;;;;;;2.47;0.85;;;22.60;38.90;;;20.70;42.77;101194.75;12215286;19;20085;-80